sensor_id;sensor_type;location;lat;lon;timestamp;temperature;humidity
21778;DHT22;11050;52.222;20.916;2023-05-07T00:00:08;6.30;99.90
21778;DHT22;11050;52.222;20.916;2023-05-07T00:02:35;6.30;99.90
21778;DHT22;11050;52.222;20.916;2023-05-07T00:05:01;6.30;99.90
21778;DHT22;11050;52.222;20.916;2023-05-07T00:07:28;6.30;99.90
21778;DHT22;11050;52.222;20.916;2023-05-07T00:09:53;6.30;99.90
21778;DHT22;11050;52.222;20.916;2023-05-07T00:12:19;6.30;99.90
21778;DHT22;11050;52.222;20.916;2023-05-07T00:14:45;6.30;99.90
21778;DHT22;11050;52.222;20.916;2023-05-07T00:17:11;6.30;99.90
21778;DHT22;11050;52.222;20.916;2023-05-07T00:19:37;6.30;99.90
21778;DHT22;11050;52.222;20.916;2023-05-07T00:22:02;6.20;99.90
21778;DHT22;11050;52.222;20.916;2023-05-07T00:24:28;6.30;99.90
21778;DHT22;11050;52.222;20.916;2023-05-07T00:26:54;6.20;99.90
21778;DHT22;11050;52.222;20.916;2023-05-07T00:29:19;6.20;99.90
21778;DHT22;11050;52.222;20.916;2023-05-07T00:31:45;6.20;99.90
21778;DHT22;11050;52.222;20.916;2023-05-07T00:34:11;6.20;99.90
21778;DHT22;11050;52.222;20.916;2023-05-07T00:36:36;6.20;99.90
21778;DHT22;11050;52.222;20.916;2023-05-07T00:39:02;6.20;99.90
21778;DHT22;11050;52.222;20.916;2023-05-07T00:41:29;6.20;99.90
21778;DHT22;11050;52.222;20.916;2023-05-07T00:43:56;6.20;99.90
21778;DHT22;11050;52.222;20.916;2023-05-07T00:46:22;6.20;99.90
21778;DHT22;11050;52.222;20.916;2023-05-07T00:48:50;6.20;99.90
21778;DHT22;11050;52.222;20.916;2023-05-07T00:51:17;6.20;99.90
21778;DHT22;11050;52.222;20.916;2023-05-07T00:53:43;6.20;99.90
21778;DHT22;11050;52.222;20.916;2023-05-07T00:56:10;6.20;99.90
21778;DHT22;11050;52.222;20.916;2023-05-07T00:58:36;6.20;99.90
21778;DHT22;11050;52.222;20.916;2023-05-07T01:01:02;6.20;99.90
21778;DHT22;11050;52.222;20.916;2023-05-07T01:03:28;6.10;99.90
21778;DHT22;11050;52.222;20.916;2023-05-07T01:05:55;6.10;99.90
21778;DHT22;11050;52.222;20.916;2023-05-07T01:08:23;6.20;99.90
21778;DHT22;11050;52.222;20.916;2023-05-07T01:10:52;6.20;99.90
21778;DHT22;11050;52.222;20.916;2023-05-07T01:13:18;6.10;99.90
21778;DHT22;11050;52.222;20.916;2023-05-07T01:15:44;6.10;99.90
21778;DHT22;11050;52.222;20.916;2023-05-07T01:18:10;6.10;99.90
21778;DHT22;11050;52.222;20.916;2023-05-07T01:20:36;6.10;99.90
21778;DHT22;11050;52.222;20.916;2023-05-07T01:23:03;6.10;99.90
21778;DHT22;11050;52.222;20.916;2023-05-07T01:25:29;6.10;99.90
21778;DHT22;11050;52.222;20.916;2023-05-07T01:27:55;6.10;99.90
21778;DHT22;11050;52.222;20.916;2023-05-07T01:30:22;6.10;99.90
21778;DHT22;11050;52.222;20.916;2023-05-07T01:32:52;6.10;99.90
21778;DHT22;11050;52.222;20.916;2023-05-07T01:35:25;6.00;99.90
21778;DHT22;11050;52.222;20.916;2023-05-07T01:37:54;6.10;99.90
21778;DHT22;11050;52.222;20.916;2023-05-07T01:40:20;6.00;99.90
21778;DHT22;11050;52.222;20.916;2023-05-07T01:42:47;6.00;99.90
21778;DHT22;11050;52.222;20.916;2023-05-07T01:45:13;6.00;99.90
21778;DHT22;11050;52.222;20.916;2023-05-07T01:47:39;6.00;99.90
21778;DHT22;11050;52.222;20.916;2023-05-07T01:50:06;6.00;99.90
21778;DHT22;11050;52.222;20.916;2023-05-07T01:52:37;6.00;99.90
21778;DHT22;11050;52.222;20.916;2023-05-07T01:55:04;6.00;99.90
21778;DHT22;11050;52.222;20.916;2023-05-07T01:57:31;6.00;99.90
21778;DHT22;11050;52.222;20.916;2023-05-07T01:59:56;6.00;99.90
21778;DHT22;11050;52.222;20.916;2023-05-07T02:02:22;6.00;99.90
21778;DHT22;11050;52.222;20.916;2023-05-07T02:04:48;6.00;99.90
21778;DHT22;11050;52.222;20.916;2023-05-07T02:07:13;6.00;99.90
21778;DHT22;11050;52.222;20.916;2023-05-07T02:09:39;6.00;99.90
21778;DHT22;11050;52.222;20.916;2023-05-07T02:12:05;6.00;99.90
21778;DHT22;11050;52.222;20.916;2023-05-07T02:14:30;5.90;99.90
21778;DHT22;11050;52.222;20.916;2023-05-07T02:16:56;5.90;99.90
21778;DHT22;11050;52.222;20.916;2023-05-07T02:19:22;5.90;99.90
21778;DHT22;11050;52.222;20.916;2023-05-07T02:21:47;5.90;99.90
21778;DHT22;11050;52.222;20.916;2023-05-07T02:24:13;5.90;99.90
21778;DHT22;11050;52.222;20.916;2023-05-07T02:26:40;5.90;99.90
21778;DHT22;11050;52.222;20.916;2023-05-07T02:29:06;5.90;99.90
21778;DHT22;11050;52.222;20.916;2023-05-07T02:31:32;5.90;99.90
21778;DHT22;11050;52.222;20.916;2023-05-07T02:33:59;5.90;99.90
21778;DHT22;11050;52.222;20.916;2023-05-07T02:36:25;5.90;99.90
21778;DHT22;11050;52.222;20.916;2023-05-07T02:38:52;5.90;99.90
21778;DHT22;11050;52.222;20.916;2023-05-07T02:41:18;5.90;99.90
21778;DHT22;11050;52.222;20.916;2023-05-07T02:43:43;5.80;99.90
21778;DHT22;11050;52.222;20.916;2023-05-07T02:46:09;5.90;99.90
21778;DHT22;11050;52.222;20.916;2023-05-07T02:48:35;5.80;99.90
21778;DHT22;11050;52.222;20.916;2023-05-07T02:51:01;5.90;99.90
21778;DHT22;11050;52.222;20.916;2023-05-07T02:53:27;5.80;99.90
21778;DHT22;11050;52.222;20.916;2023-05-07T02:55:59;5.90;99.90
21778;DHT22;11050;52.222;20.916;2023-05-07T02:58:25;5.90;99.90
21778;DHT22;11050;52.222;20.916;2023-05-07T03:00:52;5.80;99.90
21778;DHT22;11050;52.222;20.916;2023-05-07T03:03:20;5.80;99.90
21778;DHT22;11050;52.222;20.916;2023-05-07T03:05:45;5.80;99.90
21778;DHT22;11050;52.222;20.916;2023-05-07T03:08:11;5.80;99.90
21778;DHT22;11050;52.222;20.916;2023-05-07T03:10:37;5.80;99.90
21778;DHT22;11050;52.222;20.916;2023-05-07T03:13:03;5.80;99.90
21778;DHT22;11050;52.222;20.916;2023-05-07T03:15:29;5.80;99.90
21778;DHT22;11050;52.222;20.916;2023-05-07T03:17:55;5.80;99.90
21778;DHT22;11050;52.222;20.916;2023-05-07T03:20:21;5.80;99.90
21778;DHT22;11050;52.222;20.916;2023-05-07T03:22:47;5.80;99.90
21778;DHT22;11050;52.222;20.916;2023-05-07T03:25:13;5.80;99.90
21778;DHT22;11050;52.222;20.916;2023-05-07T03:27:40;5.90;99.90
21778;DHT22;11050;52.222;20.916;2023-05-07T03:30:07;5.90;99.90
21778;DHT22;11050;52.222;20.916;2023-05-07T03:32:34;5.90;99.90
21778;DHT22;11050;52.222;20.916;2023-05-07T03:35:00;5.90;99.90
21778;DHT22;11050;52.222;20.916;2023-05-07T03:37:26;5.90;99.90
21778;DHT22;11050;52.222;20.916;2023-05-07T03:39:52;5.90;99.90
21778;DHT22;11050;52.222;20.916;2023-05-07T03:42:18;5.90;99.90
21778;DHT22;11050;52.222;20.916;2023-05-07T03:44:44;5.90;99.90
21778;DHT22;11050;52.222;20.916;2023-05-07T03:47:09;6.00;99.90
21778;DHT22;11050;52.222;20.916;2023-05-07T03:49:36;5.90;99.90
21778;DHT22;11050;52.222;20.916;2023-05-07T03:52:02;6.00;99.90
21778;DHT22;11050;52.222;20.916;2023-05-07T03:54:28;5.90;99.90
21778;DHT22;11050;52.222;20.916;2023-05-07T03:56:53;6.00;99.90
21778;DHT22;11050;52.222;20.916;2023-05-07T03:59:19;6.00;99.90
21778;DHT22;11050;52.222;20.916;2023-05-07T04:01:44;6.00;99.90
21778;DHT22;11050;52.222;20.916;2023-05-07T04:04:10;6.00;99.90
21778;DHT22;11050;52.222;20.916;2023-05-07T04:06:36;6.00;99.90
21778;DHT22;11050;52.222;20.916;2023-05-07T04:09:02;6.10;99.90
21778;DHT22;11050;52.222;20.916;2023-05-07T04:11:28;6.10;99.90
21778;DHT22;11050;52.222;20.916;2023-05-07T04:13:54;6.10;99.90
21778;DHT22;11050;52.222;20.916;2023-05-07T04:16:19;6.10;99.90
21778;DHT22;11050;52.222;20.916;2023-05-07T04:18:45;6.10;99.90
21778;DHT22;11050;52.222;20.916;2023-05-07T04:21:15;6.10;99.90
21778;DHT22;11050;52.222;20.916;2023-05-07T04:23:42;6.20;99.90
21778;DHT22;11050;52.222;20.916;2023-05-07T04:26:08;6.20;99.90
21778;DHT22;11050;52.222;20.916;2023-05-07T04:28:34;6.20;99.90
21778;DHT22;11050;52.222;20.916;2023-05-07T04:31:00;6.20;99.90
21778;DHT22;11050;52.222;20.916;2023-05-07T04:33:26;6.20;99.90
21778;DHT22;11050;52.222;20.916;2023-05-07T04:35:51;6.20;99.90
21778;DHT22;11050;52.222;20.916;2023-05-07T04:38:17;6.20;99.90
21778;DHT22;11050;52.222;20.916;2023-05-07T04:40:44;6.20;99.90
21778;DHT22;11050;52.222;20.916;2023-05-07T04:43:10;6.30;99.90
21778;DHT22;11050;52.222;20.916;2023-05-07T04:45:36;6.30;99.90
21778;DHT22;11050;52.222;20.916;2023-05-07T04:48:02;6.30;99.90
21778;DHT22;11050;52.222;20.916;2023-05-07T04:50:28;6.30;99.90
21778;DHT22;11050;52.222;20.916;2023-05-07T04:52:53;6.30;99.90
21778;DHT22;11050;52.222;20.916;2023-05-07T04:55:19;6.30;99.90
21778;DHT22;11050;52.222;20.916;2023-05-07T04:57:45;6.40;99.90
21778;DHT22;11050;52.222;20.916;2023-05-07T05:00:11;6.40;99.90
21778;DHT22;11050;52.222;20.916;2023-05-07T05:02:40;6.40;99.90
21778;DHT22;11050;52.222;20.916;2023-05-07T05:05:06;6.50;99.90
21778;DHT22;11050;52.222;20.916;2023-05-07T05:07:32;6.50;99.90
21778;DHT22;11050;52.222;20.916;2023-05-07T05:09:58;6.60;99.90
21778;DHT22;11050;52.222;20.916;2023-05-07T05:12:24;6.60;99.90
21778;DHT22;11050;52.222;20.916;2023-05-07T05:14:50;6.70;99.90
21778;DHT22;11050;52.222;20.916;2023-05-07T05:17:16;6.80;99.90
21778;DHT22;11050;52.222;20.916;2023-05-07T05:19:41;6.90;99.90
21778;DHT22;11050;52.222;20.916;2023-05-07T05:22:07;6.90;99.90
21778;DHT22;11050;52.222;20.916;2023-05-07T05:24:33;7.00;99.90
21778;DHT22;11050;52.222;20.916;2023-05-07T05:26:58;7.00;99.90
21778;DHT22;11050;52.222;20.916;2023-05-07T05:29:27;7.10;99.90
21778;DHT22;11050;52.222;20.916;2023-05-07T05:31:53;7.20;99.90
21778;DHT22;11050;52.222;20.916;2023-05-07T05:34:18;7.30;99.90
21778;DHT22;11050;52.222;20.916;2023-05-07T05:36:47;7.40;99.90
21778;DHT22;11050;52.222;20.916;2023-05-07T05:39:13;7.50;99.90
21778;DHT22;11050;52.222;20.916;2023-05-07T05:41:39;7.60;99.90
21778;DHT22;11050;52.222;20.916;2023-05-07T05:44:06;7.70;99.90
21778;DHT22;11050;52.222;20.916;2023-05-07T05:46:31;7.80;99.90
21778;DHT22;11050;52.222;20.916;2023-05-07T05:48:57;7.80;99.90
21778;DHT22;11050;52.222;20.916;2023-05-07T05:51:23;7.90;99.90
21778;DHT22;11050;52.222;20.916;2023-05-07T05:53:49;7.90;99.90
21778;DHT22;11050;52.222;20.916;2023-05-07T05:56:15;7.80;99.90
21778;DHT22;11050;52.222;20.916;2023-05-07T05:58:41;7.90;99.90
21778;DHT22;11050;52.222;20.916;2023-05-07T06:01:07;7.90;99.90
21778;DHT22;11050;52.222;20.916;2023-05-07T06:03:33;8.00;99.90
21778;DHT22;11050;52.222;20.916;2023-05-07T06:05:59;8.00;99.90
21778;DHT22;11050;52.222;20.916;2023-05-07T06:08:29;8.00;99.90
21778;DHT22;11050;52.222;20.916;2023-05-07T06:10:55;8.10;99.90
21778;DHT22;11050;52.222;20.916;2023-05-07T06:13:21;8.20;99.90
21778;DHT22;11050;52.222;20.916;2023-05-07T06:15:48;8.20;99.90
21778;DHT22;11050;52.222;20.916;2023-05-07T06:18:14;8.30;99.90
21778;DHT22;11050;52.222;20.916;2023-05-07T06:20:40;8.30;99.90
21778;DHT22;11050;52.222;20.916;2023-05-07T06:23:05;8.40;99.90
21778;DHT22;11050;52.222;20.916;2023-05-07T06:25:31;8.40;99.90
21778;DHT22;11050;52.222;20.916;2023-05-07T06:27:57;8.40;99.90
21778;DHT22;11050;52.222;20.916;2023-05-07T06:30:22;8.50;99.90
21778;DHT22;11050;52.222;20.916;2023-05-07T06:32:48;8.50;99.90
21778;DHT22;11050;52.222;20.916;2023-05-07T06:35:14;8.60;99.90
21778;DHT22;11050;52.222;20.916;2023-05-07T06:37:41;8.60;99.90
21778;DHT22;11050;52.222;20.916;2023-05-07T06:40:08;8.60;99.90
21778;DHT22;11050;52.222;20.916;2023-05-07T06:42:36;8.70;99.90
21778;DHT22;11050;52.222;20.916;2023-05-07T06:45:02;8.70;99.90
21778;DHT22;11050;52.222;20.916;2023-05-07T06:47:29;8.80;99.90
21778;DHT22;11050;52.222;20.916;2023-05-07T06:49:54;8.80;99.90
21778;DHT22;11050;52.222;20.916;2023-05-07T06:52:20;8.80;99.90
21778;DHT22;11050;52.222;20.916;2023-05-07T06:54:46;8.90;99.90
21778;DHT22;11050;52.222;20.916;2023-05-07T06:57:12;8.90;99.90
21778;DHT22;11050;52.222;20.916;2023-05-07T06:59:37;9.00;99.90
21778;DHT22;11050;52.222;20.916;2023-05-07T07:02:03;9.10;99.90
21778;DHT22;11050;52.222;20.916;2023-05-07T07:04:29;9.10;99.90
21778;DHT22;11050;52.222;20.916;2023-05-07T07:06:55;9.20;99.90
21778;DHT22;11050;52.222;20.916;2023-05-07T07:09:22;9.30;99.90
21778;DHT22;11050;52.222;20.916;2023-05-07T07:11:47;9.40;99.90
21778;DHT22;11050;52.222;20.916;2023-05-07T07:14:13;9.50;99.90
21778;DHT22;11050;52.222;20.916;2023-05-07T07:16:39;9.60;99.90
21778;DHT22;11050;52.222;20.916;2023-05-07T07:19:06;9.70;99.90
21778;DHT22;11050;52.222;20.916;2023-05-07T07:21:31;9.80;99.90
21778;DHT22;11050;52.222;20.916;2023-05-07T07:23:57;9.90;99.90
21778;DHT22;11050;52.222;20.916;2023-05-07T07:26:23;10.00;99.90
21778;DHT22;11050;52.222;20.916;2023-05-07T07:28:48;10.10;99.90
21778;DHT22;11050;52.222;20.916;2023-05-07T07:31:14;10.10;99.90
21778;DHT22;11050;52.222;20.916;2023-05-07T07:33:40;10.20;99.90
21778;DHT22;11050;52.222;20.916;2023-05-07T07:36:06;10.20;99.90
21778;DHT22;11050;52.222;20.916;2023-05-07T07:38:33;10.30;99.90
21778;DHT22;11050;52.222;20.916;2023-05-07T07:41:00;10.40;99.90
21778;DHT22;11050;52.222;20.916;2023-05-07T07:43:26;10.40;99.90
21778;DHT22;11050;52.222;20.916;2023-05-07T07:45:51;10.50;99.90
21778;DHT22;11050;52.222;20.916;2023-05-07T07:48:17;10.60;99.90
21778;DHT22;11050;52.222;20.916;2023-05-07T07:50:43;10.60;99.90
21778;DHT22;11050;52.222;20.916;2023-05-07T07:53:08;10.70;99.90
21778;DHT22;11050;52.222;20.916;2023-05-07T07:55:41;10.70;99.90
21778;DHT22;11050;52.222;20.916;2023-05-07T07:58:06;10.80;99.90
21778;DHT22;11050;52.222;20.916;2023-05-07T08:00:32;10.80;99.90
21778;DHT22;11050;52.222;20.916;2023-05-07T08:02:58;10.90;99.90
21778;DHT22;11050;52.222;20.916;2023-05-07T08:05:24;10.90;99.90
21778;DHT22;11050;52.222;20.916;2023-05-07T08:07:50;10.90;99.90
21778;DHT22;11050;52.222;20.916;2023-05-07T08:10:17;10.90;99.90
21778;DHT22;11050;52.222;20.916;2023-05-07T08:12:50;10.90;99.90
21778;DHT22;11050;52.222;20.916;2023-05-07T08:15:16;10.90;99.90
21778;DHT22;11050;52.222;20.916;2023-05-07T08:17:43;10.90;99.90
21778;DHT22;11050;52.222;20.916;2023-05-07T08:20:09;10.90;99.90
21778;DHT22;11050;52.222;20.916;2023-05-07T08:22:36;10.90;99.90
21778;DHT22;11050;52.222;20.916;2023-05-07T08:25:02;11.00;99.90
21778;DHT22;11050;52.222;20.916;2023-05-07T08:27:28;11.20;99.90
21778;DHT22;11050;52.222;20.916;2023-05-07T08:29:54;11.40;99.90
21778;DHT22;11050;52.222;20.916;2023-05-07T08:32:20;11.50;99.90
21778;DHT22;11050;52.222;20.916;2023-05-07T08:34:47;11.50;99.90
21778;DHT22;11050;52.222;20.916;2023-05-07T08:37:13;11.40;99.90
21778;DHT22;11050;52.222;20.916;2023-05-07T08:39:55;11.50;99.90
21778;DHT22;11050;52.222;20.916;2023-05-07T08:42:23;11.70;99.90
21778;DHT22;11050;52.222;20.916;2023-05-07T08:44:51;11.90;99.90
21778;DHT22;11050;52.222;20.916;2023-05-07T08:47:21;12.00;99.90
21778;DHT22;11050;52.222;20.916;2023-05-07T08:49:55;12.20;99.90
21778;DHT22;11050;52.222;20.916;2023-05-07T08:52:20;12.40;99.90
21778;DHT22;11050;52.222;20.916;2023-05-07T08:54:46;12.60;99.90
21778;DHT22;11050;52.222;20.916;2023-05-07T08:57:13;12.70;99.90
21778;DHT22;11050;52.222;20.916;2023-05-07T08:59:40;12.80;99.90
21778;DHT22;11050;52.222;20.916;2023-05-07T09:02:09;12.80;99.90
21778;DHT22;11050;52.222;20.916;2023-05-07T09:04:35;12.80;99.90
21778;DHT22;11050;52.222;20.916;2023-05-07T09:07:01;12.70;99.90
21778;DHT22;11050;52.222;20.916;2023-05-07T09:09:32;12.60;99.90
21778;DHT22;11050;52.222;20.916;2023-05-07T09:11:59;12.60;99.90
21778;DHT22;11050;52.222;20.916;2023-05-07T09:14:25;12.50;99.90
21778;DHT22;11050;52.222;20.916;2023-05-07T09:16:54;12.50;99.90
21778;DHT22;11050;52.222;20.916;2023-05-07T09:19:24;12.50;99.20
21778;DHT22;11050;52.222;20.916;2023-05-07T09:21:58;12.50;97.50
21778;DHT22;11050;52.222;20.916;2023-05-07T09:24:25;12.40;98.00
21778;DHT22;11050;52.222;20.916;2023-05-07T09:26:51;12.40;97.90
21778;DHT22;11050;52.222;20.916;2023-05-07T09:29:16;12.50;97.80
21778;DHT22;11050;52.222;20.916;2023-05-07T09:31:43;12.60;97.60
21778;DHT22;11050;52.222;20.916;2023-05-07T09:34:08;12.70;96.70
21778;DHT22;11050;52.222;20.916;2023-05-07T09:36:34;12.80;96.70
21778;DHT22;11050;52.222;20.916;2023-05-07T09:39:00;12.80;95.90
21778;DHT22;11050;52.222;20.916;2023-05-07T09:41:26;12.70;95.80
21778;DHT22;11050;52.222;20.916;2023-05-07T09:43:55;12.60;94.40
21778;DHT22;11050;52.222;20.916;2023-05-07T09:46:29;12.40;94.00
21778;DHT22;11050;52.222;20.916;2023-05-07T09:48:57;12.40;94.20
21778;DHT22;11050;52.222;20.916;2023-05-07T09:51:28;12.40;94.20
21778;DHT22;11050;52.222;20.916;2023-05-07T09:53:57;12.50;94.00
21778;DHT22;11050;52.222;20.916;2023-05-07T09:56:25;12.50;93.30
21778;DHT22;11050;52.222;20.916;2023-05-07T09:58:54;12.60;93.30
21778;DHT22;11050;52.222;20.916;2023-05-07T10:01:21;12.50;92.90
21778;DHT22;11050;52.222;20.916;2023-05-07T10:03:51;12.60;93.10
21778;DHT22;11050;52.222;20.916;2023-05-07T10:06:19;12.70;92.70
21778;DHT22;11050;52.222;20.916;2023-05-07T10:08:46;12.80;92.00
21778;DHT22;11050;52.222;20.916;2023-05-07T10:11:13;12.90;91.40
21778;DHT22;11050;52.222;20.916;2023-05-07T10:13:41;12.90;90.40
21778;DHT22;11050;52.222;20.916;2023-05-07T10:16:06;13.00;90.20
21778;DHT22;11050;52.222;20.916;2023-05-07T10:18:33;13.00;88.60
21778;DHT22;11050;52.222;20.916;2023-05-07T10:21:26;13.00;89.30
21778;DHT22;11050;52.222;20.916;2023-05-07T10:24:10;13.00;88.30
21778;DHT22;11050;52.222;20.916;2023-05-07T10:26:43;13.00;88.10
21778;DHT22;11050;52.222;20.916;2023-05-07T10:34:54;12.90;88.20
21778;DHT22;11050;52.222;20.916;2023-05-07T10:37:25;12.90;88.90
21778;DHT22;11050;52.222;20.916;2023-05-07T10:39:51;13.10;88.80
21778;DHT22;11050;52.222;20.916;2023-05-07T10:42:17;13.20;88.30
21778;DHT22;11050;52.222;20.916;2023-05-07T10:44:43;13.30;85.40
21778;DHT22;11050;52.222;20.916;2023-05-07T10:47:10;13.40;84.80
21778;DHT22;11050;52.222;20.916;2023-05-07T10:52:31;13.40;83.20
21778;DHT22;11050;52.222;20.916;2023-05-07T10:57:45;13.40;81.60
21778;DHT22;11050;52.222;20.916;2023-05-07T11:05:31;13.00;82.40
21778;DHT22;11050;52.222;20.916;2023-05-07T11:08:02;12.90;82.60
21778;DHT22;11050;52.222;20.916;2023-05-07T11:10:50;12.80;84.20
21778;DHT22;11050;52.222;20.916;2023-05-07T11:13:17;12.70;84.20
21778;DHT22;11050;52.222;20.916;2023-05-07T11:15:46;12.60;85.00
21778;DHT22;11050;52.222;20.916;2023-05-07T11:18:15;12.50;85.20
21778;DHT22;11050;52.222;20.916;2023-05-07T11:20:55;12.50;85.70
21778;DHT22;11050;52.222;20.916;2023-05-07T11:26:02;12.70;87.60
21778;DHT22;11050;52.222;20.916;2023-05-07T11:28:30;12.90;89.00
21778;DHT22;11050;52.222;20.916;2023-05-07T11:31:02;13.30;87.00
21778;DHT22;11050;52.222;20.916;2023-05-07T11:33:29;13.80;85.40
21778;DHT22;11050;52.222;20.916;2023-05-07T11:35:56;14.20;83.90
21778;DHT22;11050;52.222;20.916;2023-05-07T11:38:22;14.30;80.20
21778;DHT22;11050;52.222;20.916;2023-05-07T11:40:49;14.40;77.70
21778;DHT22;11050;52.222;20.916;2023-05-07T11:43:20;14.30;78.30
21778;DHT22;11050;52.222;20.916;2023-05-07T11:45:47;14.40;78.10
21778;DHT22;11050;52.222;20.916;2023-05-07T11:48:14;14.40;77.20
21778;DHT22;11050;52.222;20.916;2023-05-07T11:50:59;14.50;76.30
21778;DHT22;11050;52.222;20.916;2023-05-07T11:53:28;14.60;75.40
21778;DHT22;11050;52.222;20.916;2023-05-07T11:56:05;14.60;75.60
21778;DHT22;11050;52.222;20.916;2023-05-07T11:58:40;14.60;75.60
21778;DHT22;11050;52.222;20.916;2023-05-07T12:01:11;14.60;75.20
21778;DHT22;11050;52.222;20.916;2023-05-07T12:03:43;14.80;75.00
21778;DHT22;11050;52.222;20.916;2023-05-07T12:06:16;15.00;73.30
21778;DHT22;11050;52.222;20.916;2023-05-07T12:08:43;15.20;72.40
21778;DHT22;11050;52.222;20.916;2023-05-07T12:11:15;15.40;71.30
21778;DHT22;11050;52.222;20.916;2023-05-07T12:13:47;15.60;69.70
21778;DHT22;11050;52.222;20.916;2023-05-07T12:16:13;15.60;71.10
21778;DHT22;11050;52.222;20.916;2023-05-07T12:18:40;15.70;69.80
21778;DHT22;11050;52.222;20.916;2023-05-07T12:21:06;15.70;69.00
21778;DHT22;11050;52.222;20.916;2023-05-07T12:23:34;15.70;70.70
21778;DHT22;11050;52.222;20.916;2023-05-07T12:26:01;15.70;69.70
21778;DHT22;11050;52.222;20.916;2023-05-07T12:28:28;15.60;68.90
21778;DHT22;11050;52.222;20.916;2023-05-07T12:30:54;15.40;68.90
21778;DHT22;11050;52.222;20.916;2023-05-07T12:33:24;15.30;69.50
21778;DHT22;11050;52.222;20.916;2023-05-07T12:35:53;15.10;69.60
21778;DHT22;11050;52.222;20.916;2023-05-07T12:38:20;15.10;70.00
21778;DHT22;11050;52.222;20.916;2023-05-07T12:40:50;15.10;68.40
21778;DHT22;11050;52.222;20.916;2023-05-07T12:43:20;15.10;68.00
21778;DHT22;11050;52.222;20.916;2023-05-07T12:45:49;15.10;68.20
21778;DHT22;11050;52.222;20.916;2023-05-07T12:48:16;14.90;68.50
21778;DHT22;11050;52.222;20.916;2023-05-07T12:50:42;14.90;68.50
21778;DHT22;11050;52.222;20.916;2023-05-07T12:53:11;14.80;69.30
21778;DHT22;11050;52.222;20.916;2023-05-07T12:55:48;14.80;71.20
21778;DHT22;11050;52.222;20.916;2023-05-07T12:58:43;15.00;71.30
21778;DHT22;11050;52.222;20.916;2023-05-07T13:01:09;15.40;70.20
21778;DHT22;11050;52.222;20.916;2023-05-07T13:03:37;15.90;69.50
21778;DHT22;11050;52.222;20.916;2023-05-07T13:06:06;16.40;67.40
21778;DHT22;11050;52.222;20.916;2023-05-07T13:08:40;16.70;65.30
21778;DHT22;11050;52.222;20.916;2023-05-07T13:11:09;17.20;64.90
21778;DHT22;11050;52.222;20.916;2023-05-07T13:13:37;17.60;64.00
21778;DHT22;11050;52.222;20.916;2023-05-07T13:16:05;17.90;60.50
21778;DHT22;11050;52.222;20.916;2023-05-07T13:18:33;17.90;59.50
21778;DHT22;11050;52.222;20.916;2023-05-07T13:21:00;17.80;58.00
21778;DHT22;11050;52.222;20.916;2023-05-07T13:23:27;17.50;58.10
21778;DHT22;11050;52.222;20.916;2023-05-07T13:25:53;17.20;58.40
21778;DHT22;11050;52.222;20.916;2023-05-07T13:28:20;16.90;59.40
21778;DHT22;11050;52.222;20.916;2023-05-07T13:30:46;16.70;59.90
21778;DHT22;11050;52.222;20.916;2023-05-07T13:33:12;16.60;60.70
21778;DHT22;11050;52.222;20.916;2023-05-07T13:35:39;16.40;61.60
21778;DHT22;11050;52.222;20.916;2023-05-07T13:38:05;16.40;61.90
21778;DHT22;11050;52.222;20.916;2023-05-07T13:40:31;16.30;61.90
21778;DHT22;11050;52.222;20.916;2023-05-07T13:42:57;16.60;64.30
21778;DHT22;11050;52.222;20.916;2023-05-07T13:45:27;17.10;62.50
21778;DHT22;11050;52.222;20.916;2023-05-07T13:47:55;17.80;59.10
21778;DHT22;11050;52.222;20.916;2023-05-07T13:50:21;18.50;57.40
21778;DHT22;11050;52.222;20.916;2023-05-07T13:52:47;18.90;55.20
21778;DHT22;11050;52.222;20.916;2023-05-07T13:55:20;18.90;54.60
21778;DHT22;11050;52.222;20.916;2023-05-07T13:57:47;18.60;54.30
21778;DHT22;11050;52.222;20.916;2023-05-07T14:00:13;18.30;55.10
21778;DHT22;11050;52.222;20.916;2023-05-07T14:02:40;18.20;55.00
21778;DHT22;11050;52.222;20.916;2023-05-07T14:05:06;18.10;54.90
21778;DHT22;11050;52.222;20.916;2023-05-07T14:07:33;18.10;55.20
21778;DHT22;11050;52.222;20.916;2023-05-07T14:09:59;18.10;55.50
21778;DHT22;11050;52.222;20.916;2023-05-07T14:12:25;18.10;55.10
21778;DHT22;11050;52.222;20.916;2023-05-07T14:14:50;18.00;55.10
21778;DHT22;11050;52.222;20.916;2023-05-07T14:17:17;17.90;54.40
21778;DHT22;11050;52.222;20.916;2023-05-07T14:19:43;17.90;55.20
21778;DHT22;11050;52.222;20.916;2023-05-07T14:22:09;18.10;55.40
21778;DHT22;11050;52.222;20.916;2023-05-07T14:24:35;18.30;55.00
21778;DHT22;11050;52.222;20.916;2023-05-07T14:27:01;18.60;54.00
21778;DHT22;11050;52.222;20.916;2023-05-07T14:29:27;18.90;53.10
21778;DHT22;11050;52.222;20.916;2023-05-07T14:31:53;19.30;52.00
21778;DHT22;11050;52.222;20.916;2023-05-07T14:34:19;19.60;51.30
21778;DHT22;11050;52.222;20.916;2023-05-07T14:36:45;19.80;50.20
21778;DHT22;11050;52.222;20.916;2023-05-07T14:39:11;19.80;50.00
21778;DHT22;11050;52.222;20.916;2023-05-07T14:41:36;19.90;50.20
21778;DHT22;11050;52.222;20.916;2023-05-07T14:44:02;19.90;49.90
21778;DHT22;11050;52.222;20.916;2023-05-07T14:46:29;19.80;49.70
21778;DHT22;11050;52.222;20.916;2023-05-07T14:48:56;19.60;50.00
21778;DHT22;11050;52.222;20.916;2023-05-07T14:51:22;19.50;50.70
21778;DHT22;11050;52.222;20.916;2023-05-07T14:53:49;19.50;50.30
21778;DHT22;11050;52.222;20.916;2023-05-07T14:56:16;19.80;51.00
21778;DHT22;11050;52.222;20.916;2023-05-07T14:58:43;20.20;49.70
21778;DHT22;11050;52.222;20.916;2023-05-07T15:01:09;20.70;48.50
21778;DHT22;11050;52.222;20.916;2023-05-07T15:03:35;21.20;48.00
21778;DHT22;11050;52.222;20.916;2023-05-07T15:06:02;21.70;46.90
21778;DHT22;11050;52.222;20.916;2023-05-07T15:08:28;22.20;45.80
21778;DHT22;11050;52.222;20.916;2023-05-07T15:10:53;22.60;43.80
21778;DHT22;11050;52.222;20.916;2023-05-07T15:13:20;22.90;42.80
21778;DHT22;11050;52.222;20.916;2023-05-07T15:15:47;23.00;42.10
21778;DHT22;11050;52.222;20.916;2023-05-07T15:18:14;22.80;41.20
21778;DHT22;11050;52.222;20.916;2023-05-07T15:20:41;22.50;41.40
21778;DHT22;11050;52.222;20.916;2023-05-07T15:23:08;22.20;42.00
21778;DHT22;11050;52.222;20.916;2023-05-07T15:25:39;22.10;42.70
21778;DHT22;11050;52.222;20.916;2023-05-07T15:28:05;22.00;42.80
21778;DHT22;11050;52.222;20.916;2023-05-07T15:30:30;22.20;42.00
21778;DHT22;11050;52.222;20.916;2023-05-07T15:32:56;22.50;41.90
21778;DHT22;11050;52.222;20.916;2023-05-07T15:35:22;22.80;40.70
21778;DHT22;11050;52.222;20.916;2023-05-07T15:37:49;23.00;40.10
21778;DHT22;11050;52.222;20.916;2023-05-07T15:40:15;23.20;39.70